createdAt,value
2019-06-26T00:01:30.913Z,84.80
2019-06-26T00:03:58.946Z,85.20
2019-06-26T00:06:28.990Z,85.50
2019-06-26T00:08:55.606Z,86.80
2019-06-26T00:11:24.996Z,86.40
2019-06-26T00:13:52.956Z,86.80
2019-06-26T00:16:21.041Z,87.00
2019-06-26T00:18:47.589Z,86.90
2019-06-26T00:21:15.966Z,86.80
2019-06-26T00:23:44.035Z,87.00
2019-06-26T00:26:10.695Z,87.40
2019-06-26T00:28:38.944Z,87.60
2019-06-26T00:31:05.652Z,88.30
2019-06-26T00:33:33.882Z,88.20
2019-06-26T00:36:02.234Z,88.20
2019-06-26T00:38:31.042Z,88.50
2019-06-26T00:40:57.577Z,88.90
2019-06-26T00:43:38.517Z,89.30
2019-06-26T00:45:57.110Z,89.30
2019-06-26T00:48:23.815Z,88.90
2019-06-26T00:50:51.978Z,88.70
2019-06-26T00:53:18.532Z,88.90
2019-06-26T00:55:46.998Z,89.50
2019-06-26T00:58:15.077Z,89.80
2019-06-26T01:00:46.941Z,90.10
2019-06-26T01:03:13.620Z,90.10
2019-06-26T01:05:45.052Z,90.10
2019-06-26T01:08:14.932Z,89.50
2019-06-26T01:10:44.046Z,89.10
2019-06-26T01:13:12.006Z,88.90
2019-06-26T01:15:38.988Z,88.80
2019-06-26T01:18:06.922Z,89.60
2019-06-26T01:20:33.590Z,90.00
2019-06-26T01:23:00.217Z,89.10
2019-06-26T01:25:26.739Z,89.40
2019-06-26T01:27:54.995Z,89.60
2019-06-26T01:30:22.531Z,89.30
2019-06-26T01:32:51.065Z,89.40
2019-06-26T01:35:17.790Z,89.80
2019-06-26T01:37:48.009Z,89.80
2019-06-26T01:40:17.001Z,90.00
2019-06-26T01:42:43.681Z,90.10
2019-06-26T01:45:12.991Z,90.10
2019-06-26T01:47:39.635Z,90.20
2019-06-26T01:50:10.073Z,89.70
2019-06-26T01:52:36.890Z,90.20
2019-06-26T01:55:06.962Z,90.10
2019-06-26T01:57:33.650Z,90.40
2019-06-26T02:00:00.153Z,90.00
2019-06-26T02:02:27.996Z,90.00
2019-06-26T02:04:54.707Z,90.20
2019-06-26T02:07:23.031Z,90.30
2019-06-26T02:09:53.025Z,90.50
2019-06-26T02:12:19.708Z,90.80
2019-06-26T02:14:48.065Z,90.60
2019-06-26T02:17:15.752Z,90.50
2019-06-26T02:19:44.037Z,90.70
2019-06-26T02:22:10.783Z,90.90
2019-06-26T02:24:37.410Z,91.20
2019-06-26T02:27:03.939Z,91.10
2019-06-26T02:29:32.085Z,91.30
2019-06-26T02:31:59.999Z,91.60
2019-06-26T02:34:28.025Z,91.70
2019-06-26T02:36:56.086Z,91.80
2019-06-26T02:39:26.004Z,91.80
2019-06-26T02:41:52.691Z,91.80
2019-06-26T02:44:21.005Z,91.80
2019-06-26T02:46:47.609Z,91.80
2019-06-26T02:49:17.055Z,91.80
2019-06-26T02:51:45.001Z,91.90
2019-06-26T02:54:11.713Z,92.10
2019-06-26T02:56:40.029Z,92.20
2019-06-26T02:59:06.702Z,92.30
2019-06-26T03:01:34.956Z,92.30
2019-06-26T03:04:01.462Z,92.20
2019-06-26T03:06:30.079Z,92.10
2019-06-26T03:08:58.196Z,92.00
2019-06-26T03:11:26.929Z,92.00
2019-06-26T03:13:53.638Z,91.80
2019-06-26T03:16:23.076Z,91.50
2019-06-26T03:18:49.756Z,91.50
2019-06-26T03:21:19.128Z,91.30
2019-06-26T03:23:46.960Z,91.30
2019-06-26T03:26:13.753Z,91.70
2019-06-26T03:28:42.132Z,91.40
2019-06-26T03:31:10.099Z,91.60
2019-06-26T03:33:38.026Z,92.00
2019-06-26T03:36:06.039Z,92.00
2019-06-26T03:38:34.037Z,91.90
2019-06-26T03:41:02.164Z,91.80
2019-06-26T03:43:35.334Z,91.70
2019-06-26T03:46:01.677Z,91.50
2019-06-26T03:48:30.044Z,91.80
2019-06-26T03:50:58.057Z,90.80
2019-06-26T03:53:26.101Z,90.30
2019-06-26T03:55:52.713Z,90.10
2019-06-26T03:58:19.301Z,89.60
2019-06-26T04:00:48.091Z,89.30
2019-06-26T04:03:15.295Z,89.30
2019-06-26T04:05:44.046Z,88.90
2019-06-26T04:08:10.692Z,88.80
2019-06-26T04:10:43.373Z,88.70
2019-06-26T04:13:11.061Z,88.90
2019-06-26T04:15:42.370Z,89.20
2019-06-26T04:18:10.083Z,88.40
2019-06-26T04:20:38.036Z,87.80
2019-06-26T04:23:04.623Z,88.00
2019-06-26T04:25:33.051Z,87.90
2019-06-26T04:28:01.128Z,88.10
2019-06-26T04:30:28.127Z,88.40
2019-06-26T04:32:57.026Z,88.60
2019-06-26T04:35:23.607Z,88.00
2019-06-26T04:37:52.092Z,87.80
2019-06-26T04:40:20.482Z,87.30
2019-06-26T04:42:51.107Z,87.40
2019-06-26T04:45:17.681Z,87.40
2019-06-26T04:47:45.770Z,87.50
2019-06-26T04:50:14.672Z,87.90
2019-06-26T04:52:43.016Z,88.00
2019-06-26T04:55:11.156Z,87.60
2019-06-26T04:57:37.842Z,86.60
2019-06-26T05:00:06.050Z,85.70
2019-06-26T05:02:36.069Z,86.00
2019-06-26T05:05:05.148Z,85.10
2019-06-26T05:07:33.152Z,84.60
2019-06-26T05:10:00.015Z,84.90
2019-06-26T05:12:30.082Z,83.20
2019-06-26T05:14:56.675Z,82.00
2019-06-26T05:17:23.852Z,81.30
2019-06-26T05:19:52.166Z,80.20
2019-06-26T05:22:18.791Z,78.20
2019-06-26T05:24:46.668Z,77.80
2019-06-26T05:27:15.266Z,77.20
2019-06-26T05:29:43.177Z,76.70
2019-06-26T05:32:11.083Z,76.50
2019-06-26T05:34:37.787Z,76.20
2019-06-26T05:37:04.590Z,75.20
2019-06-26T05:39:33.031Z,75.40
2019-06-26T05:42:01.265Z,75.80
2019-06-26T05:44:30.144Z,74.80
2019-06-26T05:46:57.695Z,74.50
2019-06-26T05:49:26.131Z,73.10
2019-06-26T05:51:54.046Z,72.50
2019-06-26T05:54:22.122Z,72.00
2019-06-26T05:56:50.071Z,71.30
2019-06-26T05:59:16.589Z,70.70
2019-06-26T06:01:45.067Z,69.90
2019-06-26T06:04:11.647Z,69.40
2019-06-26T06:06:41.997Z,68.20
2019-06-26T06:09:07.047Z,66.90
2019-06-26T06:11:35.132Z,66.10
2019-06-26T06:14:03.210Z,65.60
2019-06-26T06:16:46.340Z,64.60
2019-06-26T06:19:01.124Z,63.30
2019-06-26T06:21:27.626Z,64.30
2019-06-26T06:23:56.192Z,63.40
2019-06-26T06:26:22.822Z,63.10
2019-06-26T06:28:51.100Z,62.80
2019-06-26T06:31:17.684Z,62.40
2019-06-26T06:33:46.222Z,61.50
2019-06-26T06:36:12.783Z,61.50
2019-06-26T06:38:41.107Z,61.30
2019-06-26T06:41:09.240Z,60.20
2019-06-26T06:43:37.051Z,57.20
2019-06-26T06:46:07.217Z,56.20
2019-06-26T06:48:36.128Z,55.30
2019-06-26T06:51:05.120Z,53.50
2019-06-26T06:53:31.866Z,54.20
2019-06-26T06:56:00.115Z,54.40
2019-06-26T06:58:30.069Z,54.80
2019-06-26T07:00:58.169Z,53.90
2019-06-26T07:03:24.829Z,53.90
2019-06-26T07:05:53.102Z,53.90
2019-06-26T07:08:19.673Z,53.10
2019-06-26T07:10:48.085Z,52.90
2019-06-26T07:13:16.630Z,52.30
2019-06-26T07:15:45.169Z,52.10
2019-06-26T07:18:13.130Z,51.10
2019-06-26T07:20:44.490Z,52.40
2019-06-26T07:23:11.132Z,52.10
2019-06-26T07:25:39.121Z,51.10
2019-06-26T07:28:07.123Z,51.80
2019-06-26T07:30:33.613Z,51.20
2019-06-26T07:33:02.193Z,51.00
2019-06-26T07:35:30.027Z,50.30
2019-06-26T07:38:00.197Z,50.80
2019-06-26T07:40:26.966Z,50.60
2019-06-26T07:42:57.315Z,50.30
2019-06-26T07:45:26.228Z,48.80
2019-06-26T07:47:54.761Z,49.30
2019-06-26T07:50:23.173Z,49.60
2019-06-26T07:52:49.878Z,48.30
2019-06-26T07:55:18.302Z,48.80
2019-06-26T07:57:46.354Z,48.80
2019-06-26T08:00:16.180Z,48.00
2019-06-26T08:02:44.184Z,46.70
2019-06-26T08:05:11.290Z,46.70
2019-06-26T08:07:41.123Z,47.60
2019-06-26T08:10:08.366Z,46.50
2019-06-26T08:12:37.231Z,46.90
2019-06-26T08:15:05.915Z,48.30
2019-06-26T08:17:36.157Z,47.00
2019-06-26T08:20:03.538Z,45.90
2019-06-26T08:22:32.242Z,44.70
2019-06-26T08:24:58.831Z,46.00
2019-06-26T08:27:27.253Z,46.00
2019-06-26T08:29:54.159Z,44.60
2019-06-26T08:32:25.996Z,43.80
2019-06-26T08:34:52.635Z,43.50
2019-06-26T08:37:22.294Z,43.20
2019-06-26T08:39:48.954Z,45.20
2019-06-26T08:42:17.235Z,45.90
2019-06-26T08:44:45.248Z,44.30
2019-06-26T08:47:15.193Z,44.50
2019-06-26T08:49:41.639Z,43.00
2019-06-26T08:52:10.267Z,40.50
2019-06-26T08:54:36.991Z,43.00
2019-06-26T08:57:05.238Z,41.80
2019-06-26T08:59:33.300Z,42.10
2019-06-26T09:02:01.177Z,43.10
2019-06-26T09:04:29.240Z,41.50
2019-06-26T09:07:00.256Z,40.60
2019-06-26T09:09:26.858Z,41.70
2019-06-26T09:11:55.215Z,40.90
2019-06-26T09:14:21.750Z,39.60
2019-06-26T09:16:52.261Z,37.40
2019-06-26T09:19:19.072Z,36.80
2019-06-26T09:21:47.276Z,35.80
2019-06-26T09:24:13.816Z,38.00
2019-06-26T09:26:42.298Z,37.20
2019-06-26T09:29:10.267Z,38.70
2019-06-26T09:31:39.136Z,37.90
2019-06-26T09:34:07.464Z,38.80
2019-06-26T09:36:35.298Z,38.00
2019-06-26T09:39:03.242Z,37.80
2019-06-26T09:41:32.195Z,38.30
2019-06-26T09:44:00.390Z,37.30
2019-06-26T09:46:28.220Z,36.80
2019-06-26T09:48:56.282Z,37.30
2019-06-26T09:51:25.760Z,35.80
2019-06-26T09:53:54.236Z,35.90
2019-06-26T09:56:22.143Z,35.20
2019-06-26T09:58:50.191Z,34.00
2019-06-26T10:01:18.259Z,34.50
2019-06-26T10:03:45.390Z,35.90
2019-06-26T10:06:15.297Z,35.70
2019-06-26T10:08:43.305Z,37.00
2019-06-26T10:11:11.236Z,33.40
2019-06-26T10:13:37.937Z,34.70
2019-06-26T10:16:06.295Z,34.80
2019-06-26T10:18:33.083Z,35.70
2019-06-26T10:21:03.294Z,35.70
2019-06-26T10:23:32.249Z,34.10
2019-06-26T10:25:58.765Z,35.00
2019-06-26T10:28:27.243Z,35.30
2019-06-26T10:30:55.317Z,33.60
2019-06-26T10:33:21.849Z,33.30
2019-06-26T10:35:50.341Z,32.20
2019-06-26T10:38:17.203Z,31.60
2019-06-26T10:40:43.771Z,31.20
2019-06-26T10:43:10.652Z,30.20
2019-06-26T10:45:39.356Z,30.70
2019-06-26T10:48:08.337Z,31.60
2019-06-26T10:50:47.537Z,30.80
2019-06-26T10:53:07.234Z,29.80
2019-06-26T10:55:35.335Z,28.90
2019-06-26T10:58:02.013Z,28.20
2019-06-26T11:00:31.263Z,28.30
2019-06-26T11:02:57.940Z,29.90
2019-06-26T11:05:27.292Z,31.70
2019-06-26T11:07:55.163Z,29.90
2019-06-26T11:10:25.255Z,29.40
2019-06-26T11:12:52.277Z,30.10
2019-06-26T11:15:21.245Z,30.00
2019-06-26T11:17:47.933Z,29.70
2019-06-26T11:20:19.226Z,30.00
2019-06-26T11:22:47.286Z,31.10
2019-06-26T11:25:17.644Z,31.80
2019-06-26T11:27:46.305Z,31.10
2019-06-26T11:30:15.364Z,29.20
2019-06-26T11:32:44.239Z,29.40
2019-06-26T11:35:11.344Z,28.40
2019-06-26T11:37:39.283Z,27.10
2019-06-26T11:40:06.957Z,27.30
2019-06-26T11:42:35.343Z,27.50
2019-06-26T11:45:04.683Z,28.20
2019-06-26T11:47:33.298Z,28.00
2019-06-26T11:50:00.600Z,28.20
2019-06-26T11:52:30.403Z,28.80
2019-06-26T11:55:03.100Z,29.30
2019-06-26T11:57:29.250Z,31.00
2019-06-26T11:59:55.813Z,31.40
2019-06-26T12:02:22.407Z,30.80
2019-06-26T12:04:49.116Z,30.20
2019-06-26T12:07:17.252Z,31.10
2019-06-26T12:09:45.365Z,31.40
2019-06-26T12:12:13.316Z,30.30
2019-06-26T12:14:40.024Z,31.80
2019-06-26T12:17:08.335Z,30.90
2019-06-26T12:19:34.995Z,30.70
2019-06-26T12:22:03.379Z,31.40
2019-06-26T12:24:31.316Z,30.10
2019-06-26T12:27:01.323Z,30.00
2019-06-26T12:29:27.934Z,29.50
2019-06-26T12:31:56.379Z,28.60
2019-06-26T12:34:22.889Z,28.50
2019-06-26T12:36:51.258Z,28.10
2019-06-26T12:39:18.340Z,28.40
2019-06-26T12:41:46.299Z,28.20
2019-06-26T12:44:12.847Z,28.30
2019-06-26T12:46:42.451Z,28.40
2019-06-26T12:49:11.308Z,29.10
2019-06-26T12:51:39.536Z,28.30
2019-06-26T12:54:08.497Z,28.70
2019-06-26T12:56:35.386Z,28.80
2019-06-26T12:59:03.286Z,28.30
2019-06-26T13:01:30.019Z,27.50
2019-06-26T13:03:59.331Z,27.40
2019-06-26T13:06:26.940Z,28.20
2019-06-26T13:08:55.279Z,27.40
2019-06-26T13:11:23.363Z,26.80
2019-06-26T13:14:02.089Z,26.60
2019-06-26T13:16:20.308Z,27.10
2019-06-26T13:18:48.401Z,26.60
2019-06-26T13:21:15.333Z,26.60
2019-06-26T13:23:46.316Z,27.20
2019-06-26T13:26:14.358Z,27.00
2019-06-26T13:28:42.306Z,27.10
2019-06-26T13:31:10.364Z,28.70
2019-06-26T13:33:37.055Z,28.60
2019-06-26T13:36:05.359Z,29.50
2019-06-26T13:38:31.920Z,30.90
2019-06-26T13:41:00.298Z,30.90
2019-06-26T13:43:27.121Z,31.40
2019-06-26T13:45:58.611Z,30.60
2019-06-26T13:48:24.928Z,29.80
2019-06-26T13:51:08.177Z,28.30
2019-06-26T13:53:21.935Z,28.50
2019-06-26T13:55:52.412Z,28.20
2019-06-26T13:58:20.379Z,28.10
2019-06-26T14:00:46.949Z,28.60
2019-06-26T14:03:15.395Z,29.00
2019-06-26T14:05:42.193Z,28.90
2019-06-26T14:08:10.394Z,29.10
2019-06-26T14:10:37.011Z,29.10
2019-06-26T14:13:05.420Z,29.20
2019-06-26T14:15:31.972Z,29.90
2019-06-26T14:18:00.328Z,30.30
2019-06-26T14:20:27.104Z,31.30
2019-06-26T14:22:55.359Z,30.60
2019-06-26T14:25:22.081Z,31.40
2019-06-26T14:27:52.468Z,30.80
2019-06-26T14:30:19.601Z,30.20
2019-06-26T14:32:47.467Z,29.80
2019-06-26T14:35:14.496Z,29.00
2019-06-26T14:37:41.115Z,29.40
2019-06-26T14:40:08.345Z,29.80
2019-06-26T14:42:36.342Z,31.00
2019-06-26T14:45:06.330Z,32.20
2019-06-26T14:47:35.628Z,29.70
2019-06-26T14:50:04.719Z,29.60
2019-06-26T14:52:35.225Z,30.00
2019-06-26T14:55:03.890Z,29.50
2019-06-26T14:57:34.417Z,29.80
2019-06-26T15:00:04.313Z,30.70
2019-06-26T15:02:32.392Z,30.80
2019-06-26T15:05:00.434Z,31.20
2019-06-26T15:07:28.419Z,31.60
2019-06-26T15:09:56.327Z,32.20
2019-06-26T15:12:24.371Z,32.30
2019-06-26T15:14:50.913Z,31.70
2019-06-26T15:17:19.658Z,30.80
2019-06-26T15:19:47.456Z,30.30
2019-06-26T15:22:15.445Z,30.80
2019-06-26T15:24:43.436Z,31.00
2019-06-26T15:27:13.412Z,31.50
2019-06-26T15:29:40.004Z,31.40
2019-06-26T15:32:08.422Z,31.30
2019-06-26T15:34:34.999Z,31.10
2019-06-26T15:37:03.336Z,31.50
2019-06-26T15:39:29.952Z,30.70
2019-06-26T15:41:56.680Z,30.60
2019-06-26T15:44:23.331Z,31.90
2019-06-26T15:46:51.330Z,31.80
2019-06-26T15:49:17.896Z,31.20
2019-06-26T15:51:47.395Z,32.20
2019-06-26T15:54:13.963Z,31.70
2019-06-26T15:56:44.351Z,31.60
2019-06-26T15:59:11.044Z,32.90
2019-06-26T16:01:39.494Z,31.80
2019-06-26T16:04:08.460Z,30.80
2019-06-26T16:06:36.635Z,31.70
2019-06-26T16:09:06.436Z,32.00
2019-06-26T16:11:33.246Z,32.00
2019-06-26T16:14:01.462Z,32.80
2019-06-26T16:16:28.416Z,31.90
2019-06-26T16:18:58.447Z,31.20
2019-06-26T16:21:26.437Z,31.70
2019-06-26T16:23:53.146Z,32.30
2019-06-26T16:26:23.470Z,32.60
2019-06-26T16:28:50.007Z,32.80
2019-06-26T16:31:18.614Z,33.50
2019-06-26T16:33:46.445Z,33.40
2019-06-26T16:36:12.989Z,33.30
2019-06-26T16:38:41.418Z,33.20
2019-06-26T16:41:08.020Z,32.90
2019-06-26T16:43:36.474Z,32.50
2019-06-26T16:46:04.531Z,32.20
2019-06-26T16:48:31.669Z,31.90
2019-06-26T16:51:01.430Z,33.20
2019-06-26T16:53:28.095Z,33.50
2019-06-26T16:55:58.468Z,34.10
2019-06-26T16:58:25.028Z,34.50
2019-06-26T17:00:53.449Z,34.70
2019-06-26T17:03:20.026Z,34.80
2019-06-26T17:05:49.404Z,36.90
2019-06-26T17:08:17.507Z,37.60
2019-06-26T17:10:44.072Z,38.40
2019-06-26T17:13:14.454Z,39.30
2019-06-26T17:15:41.335Z,40.00
2019-06-26T17:18:09.484Z,40.30
2019-06-26T17:20:36.134Z,40.50
2019-06-26T17:23:06.618Z,41.20
2019-06-26T17:25:33.605Z,42.00
2019-06-26T17:28:01.687Z,43.00
2019-06-26T17:30:29.422Z,43.50
2019-06-26T17:32:55.994Z,44.60
2019-06-26T17:35:24.537Z,45.00
2019-06-26T17:37:52.482Z,44.40
2019-06-26T17:40:21.413Z,45.10
2019-06-26T17:42:48.277Z,45.20
2019-06-26T17:45:17.395Z,45.20
2019-06-26T17:47:44.086Z,45.10
2019-06-26T17:50:12.447Z,45.70
2019-06-26T17:52:41.544Z,46.40
2019-06-26T17:55:10.428Z,46.50
2019-06-26T17:57:39.412Z,47.30
2019-06-26T18:00:08.183Z,47.60
2019-06-26T18:02:37.042Z,48.90
2019-06-26T18:05:08.573Z,49.30
2019-06-26T18:07:35.325Z,48.40
2019-06-26T18:10:05.151Z,49.50
2019-06-26T18:12:33.490Z,50.00
2019-06-26T18:15:00.166Z,50.40
2019-06-26T18:17:28.635Z,50.30
2019-06-26T18:19:55.288Z,50.70
2019-06-26T18:22:22.011Z,51.20
2019-06-26T18:24:48.650Z,52.20
2019-06-26T18:27:16.508Z,51.30
2019-06-26T18:29:43.082Z,51.50
2019-06-26T18:32:11.518Z,52.30
2019-06-26T18:34:39.799Z,52.50
2019-06-26T18:37:07.588Z,53.60
2019-06-26T18:39:36.476Z,55.00
2019-06-26T18:42:03.097Z,55.20
2019-06-26T18:44:31.549Z,54.70
2019-06-26T18:46:59.507Z,55.50
2019-06-26T18:49:27.530Z,55.50
2019-06-26T18:51:56.214Z,55.40
2019-06-26T18:54:24.455Z,55.10
2019-06-26T18:56:52.505Z,55.20
2019-06-26T18:59:20.500Z,55.00
2019-06-26T19:01:47.075Z,55.20
2019-06-26T19:04:15.525Z,55.20
2019-06-26T19:06:43.725Z,55.40
2019-06-26T19:09:10.569Z,56.00
2019-06-26T19:11:38.607Z,56.40
2019-06-26T19:14:05.285Z,56.80
2019-06-26T19:16:36.253Z,57.10
2019-06-26T19:19:03.527Z,57.60
2019-06-26T19:21:30.217Z,58.80
2019-06-26T19:24:09.709Z,58.30
2019-06-26T19:26:26.069Z,58.50
2019-06-26T19:28:54.544Z,59.10
2019-06-26T19:31:22.462Z,58.90
2019-06-26T19:33:52.574Z,59.10
2019-06-26T19:36:19.248Z,59.20
2019-06-26T19:38:47.587Z,59.40
2019-06-26T19:41:14.173Z,59.90
2019-06-26T19:43:42.490Z,59.00
2019-06-26T19:46:09.167Z,60.00
2019-06-26T19:48:37.540Z,60.20
2019-06-26T19:51:05.202Z,60.70
2019-06-26T19:53:33.528Z,60.10
2019-06-26T19:56:00.254Z,60.60
2019-06-26T19:58:28.580Z,60.20
2019-06-26T20:00:56.651Z,60.90
2019-06-26T20:03:23.342Z,62.20
2019-06-26T20:05:53.613Z,60.70
2019-06-26T20:08:20.373Z,60.80
2019-06-26T20:10:48.528Z,61.10
2019-06-26T20:13:15.163Z,60.80
2019-06-26T20:15:41.950Z,60.80
2019-06-26T20:18:08.561Z,59.90
2019-06-26T20:20:36.581Z,59.80
2019-06-26T20:23:04.571Z,60.10
2019-06-26T20:25:31.155Z,59.90
2019-06-26T20:27:59.649Z,59.80
2019-06-26T20:30:31.539Z,59.50
2019-06-26T20:32:59.546Z,59.70
2019-06-26T20:35:27.746Z,59.80
2019-06-26T20:37:56.613Z,59.60
2019-06-26T20:40:23.330Z,60.20
2019-06-26T20:42:53.575Z,60.90
2019-06-26T20:45:21.615Z,60.20
2019-06-26T20:47:49.568Z,60.60
2019-06-26T20:50:17.043Z,60.70
2019-06-26T20:52:45.633Z,60.40
2019-06-26T20:55:12.541Z,59.70
2019-06-26T20:57:40.553Z,59.70
2019-06-26T21:00:08.738Z,59.50
2019-06-26T21:02:37.571Z,59.70
2019-06-26T21:05:05.500Z,60.20
2019-06-26T21:07:32.338Z,60.50
2019-06-26T21:10:00.580Z,61.70
2019-06-26T21:12:28.591Z,61.70
2019-06-26T21:14:56.517Z,61.70
2019-06-26T21:17:26.552Z,62.20
2019-06-26T21:19:53.208Z,62.70
2019-06-26T21:22:21.677Z,63.40
2019-06-26T21:24:48.233Z,62.90
2019-06-26T21:27:17.632Z,63.40
2019-06-26T21:29:44.288Z,64.10
2019-06-26T21:32:12.581Z,64.10
2019-06-26T21:34:39.386Z,64.80
2019-06-26T21:37:07.776Z,65.10
2019-06-26T21:39:34.293Z,65.80
2019-06-26T21:42:02.670Z,66.20
2019-06-26T21:44:30.649Z,68.20
2019-06-26T21:46:57.221Z,68.30
2019-06-26T21:49:25.561Z,69.50
2019-06-26T21:51:54.240Z,69.80
2019-06-26T21:54:22.589Z,69.50
2019-06-26T21:57:09.715Z,69.80
2019-06-26T21:59:56.535Z,69.70
2019-06-26T22:02:41.859Z,69.50
2019-06-26T22:05:14.516Z,69.40
2019-06-26T22:07:45.524Z,69.50
2019-06-26T22:10:17.579Z,70.30
2019-06-26T22:12:44.454Z,71.10
2019-06-26T22:15:14.497Z,71.60
2019-06-26T22:17:44.532Z,71.90
2019-06-26T22:20:14.750Z,71.60
2019-06-26T22:22:43.586Z,71.50
2019-06-26T22:25:11.189Z,70.60
2019-06-26T22:27:39.730Z,70.10
2019-06-26T22:30:09.635Z,70.70
2019-06-26T22:32:38.587Z,70.30
2019-06-26T22:35:06.645Z,70.50
2019-06-26T22:37:34.636Z,70.40
2019-06-26T22:40:03.850Z,71.20
2019-06-26T22:42:32.622Z,72.10
2019-06-26T22:44:59.334Z,72.90
2019-06-26T22:47:29.702Z,74.30
2019-06-26T22:49:56.349Z,76.10
2019-06-26T22:52:25.535Z,75.40
2019-06-26T22:54:53.723Z,76.30
2019-06-26T22:57:20.318Z,76.10
2019-06-26T22:59:48.584Z,76.40
2019-06-26T23:02:16.750Z,76.80
2019-06-26T23:04:44.576Z,77.80
2019-06-26T23:07:12.568Z,78.50
2019-06-26T23:09:40.565Z,78.30
2019-06-26T23:12:07.215Z,78.60
2019-06-26T23:14:35.775Z,78.60
2019-06-26T23:17:03.579Z,78.60
2019-06-26T23:19:30.135Z,79.00
2019-06-26T23:21:58.580Z,79.40
2019-06-26T23:24:25.340Z,79.30
2019-06-26T23:26:53.593Z,79.60
2019-06-26T23:29:20.059Z,79.90
2019-06-26T23:31:48.710Z,80.50
2019-06-26T23:34:16.593Z,81.00
2019-06-26T23:36:43.009Z,81.10
2019-06-26T23:39:12.601Z,80.80
2019-06-26T23:41:39.368Z,81.00
2019-06-26T23:44:07.633Z,81.40
2019-06-26T23:46:34.080Z,80.70
2019-06-26T23:49:03.644Z,79.60
2019-06-26T23:51:31.080Z,79.00
2019-06-26T23:54:00.620Z,78.90
2019-06-26T23:56:39.910Z,79.10
2019-06-26T23:58:57.550Z,79.40
